Time;durP1;ratioP1;P1;durP2;ratioP2;P2;SDS_P1;SDS_P2;PMS_P1;PMS_P2;Temp;Humidity;BMP_temperature;BMP_pressure;BME280_temperature;BME280_humidity;BME280_pressure;Samples;Min_cycle;Max_cycle;Signal;HPM_P1;HPM_P2
2023/01/02 00:00:21;;;;;;;3.03;1.65;;;;;;;;;;5005074;28;20030;-79
2023/01/02 00:02:47;;;;;;;1.85;1.55;;;;;;;;;;5023888;28;20042;-82
2023/01/02 00:05:13;;;;;;;2.90;1.63;;;;;;;;;;5005831;28;20032;-81
2023/01/02 00:07:39;;;;;;;2.90;1.80;;;;;;;;;;5006650;28;20026;-80
2023/01/02 00:10:05;;;;;;;5.63;2.22;;;;;;;;;;5005309;28;20058;-81
2023/01/02 00:12:31;;;;;;;2.78;1.90;;;;;;;;;;5014194;28;20033;-82
2023/01/02 00:14:57;;;;;;;4.90;2.28;;;;;;;;;;5013557;28;20045;-82
2023/01/02 00:17:23;;;;;;;2.38;1.80;;;;;;;;;;5015949;28;20062;-80
2023/01/02 00:19:49;;;;;;;3.20;2.05;;;;;;;;;;5020790;28;20060;-82
2023/01/02 00:22:15;;;;;;;3.22;1.92;;;;;;;;;;5008679;28;20129;-82
2023/01/02 00:24:41;;;;;;;3.70;1.92;;;;;;;;;;5007765;28;20282;-82
2023/01/02 00:27:07;;;;;;;2.85;1.70;;;;;;;;;;5007909;28;20034;-81
2023/01/02 00:29:33;;;;;;;3.95;2.00;;;;;;;;;;5018007;28;20056;-82
2023/01/02 00:31:59;;;;;;;4.22;1.70;;;;;;;;;;5023960;28;20101;-80
2023/01/02 00:34:25;;;;;;;3.83;1.85;;;;;;;;;;5007397;28;20029;-83
2023/01/02 00:36:51;;;;;;;3.25;2.00;;;;;;;;;;5006830;28;20444;-82
2023/01/02 00:39:18;;;;;;;5.68;2.15;;;;;;;;;;5005702;28;20125;-82
2023/01/02 00:41:44;;;;;;;4.22;2.42;;;;;;;;;;5006901;28;20035;-81
2023/01/02 00:44:10;;;;;;;2.80;2.08;;;;;;;;;;5005632;28;20338;-81
2023/01/02 00:46:36;;;;;;;3.00;1.92;;;;;;;;;;5006802;28;20054;-82
2023/01/02 00:49:02;;;;;;;2.25;1.70;;;;;;;;;;5013655;28;20053;-82
2023/01/02 00:51:28;;;;;;;3.33;2.10;;;;;;;;;;5009334;28;20030;-80
2023/01/02 00:53:54;;;;;;;4.05;2.38;;;;;;;;;;5010221;28;20033;-83
2023/01/02 00:56:20;;;;;;;3.40;2.28;;;;;;;;;;5007786;28;20061;-81
2023/01/02 00:58:46;;;;;;;3.47;2.03;;;;;;;;;;5005253;28;20027;-82
2023/01/02 01:01:12;;;;;;;2.80;2.00;;;;;;;;;;5002247;28;20362;-82
2023/01/02 01:03:38;;;;;;;4.75;2.60;;;;;;;;;;4999286;28;20035;-79
2023/01/02 01:06:07;;;;;;;3.53;2.40;;;;;;;;;;5003380;28;20037;-82
2023/01/02 01:08:34;;;;;;;3.75;2.60;;;;;;;;;;5024720;28;20030;-83
2023/01/02 01:11:04;;;;;;;3.20;2.30;;;;;;;;;;5019735;28;20043;-80
2023/01/02 01:13:30;;;;;;;3.83;1.85;;;;;;;;;;5022017;28;20030;-79
2023/01/02 01:16:02;;;;;;;2.95;2.05;;;;;;;;;;5013705;28;20265;-80
2023/01/02 01:18:28;;;;;;;3.65;2.67;;;;;;;;;;5008228;28;20049;-81
2023/01/02 01:20:54;;;;;;;4.25;2.40;;;;;;;;;;5014535;28;20500;-82
2023/01/02 01:23:22;;;;;;;4.80;2.63;;;;;;;;;;5008772;28;20023;-80
2023/01/02 01:25:48;;;;;;;6.43;2.60;;;;;;;;;;5008991;28;20018;-79
2023/01/02 01:28:14;;;;;;;3.58;2.33;;;;;;;;;;5009487;28;20026;-82
2023/01/02 01:30:40;;;;;;;2.92;2.17;;;;;;;;;;5009480;28;20065;-82
2023/01/02 01:33:06;;;;;;;4.25;2.55;;;;;;;;;;5008758;28;20054;-80
2023/01/02 01:35:35;;;;;;;3.95;2.30;;;;;;;;;;4995625;28;20034;-82
2023/01/02 01:38:01;;;;;;;2.83;2.13;;;;;;;;;;4990361;28;20117;-83
2023/01/02 01:40:27;;;;;;;3.47;2.50;;;;;;;;;;5012330;28;20026;-81
2023/01/02 01:42:53;;;;;;;3.80;2.00;;;;;;;;;;5029046;28;20036;-81
2023/01/02 01:45:19;;;;;;;3.45;2.10;;;;;;;;;;5016151;28;20027;-81
2023/01/02 01:47:56;;;;;;;3.92;2.00;;;;;;;;;;5022356;28;20052;-82
2023/01/02 01:50:24;;;;;;;4.65;2.53;;;;;;;;;;5010161;28;20031;-82
2023/01/02 01:52:59;;;;;;;2.70;1.90;;;;;;;;;;5009577;28;20034;-81
2023/01/02 01:55:29;;;;;;;4.22;2.72;;;;;;;;;;5024896;28;20018;-82
2023/01/02 01:58:01;;;;;;;4.00;2.20;;;;;;;;;;5016875;28;20082;-81
2023/01/02 02:00:27;;;;;;;3.67;2.10;;;;;;;;;;5032133;28;20018;-81
2023/01/02 02:02:57;;;;;;;6.38;3.00;;;;;;;;;;5014103;28;20077;-81
2023/01/02 02:05:24;;;;;;;3.25;2.22;;;;;;;;;;5016224;28;20094;-81
2023/01/02 02:08:13;;;;;;;3.25;2.42;;;;;;;;;;5015922;28;20078;-81
2023/01/02 02:10:39;;;;;;;2.55;1.58;;;;;;;;;;5017501;28;20069;-83
2023/01/02 02:13:05;;;;;;;3.25;2.03;;;;;;;;;;5017361;28;20033;-79
2023/01/02 02:15:46;;;;;;;2.67;1.88;;;;;;;;;;5013510;28;20035;-81
2023/01/02 02:18:28;;;;;;;4.30;2.58;;;;;;;;;;5009034;28;20497;-80
2023/01/02 02:20:54;;;;;;;3.92;2.13;;;;;;;;;;5039360;28;20035;-81
2023/01/02 02:23:26;;;;;;;1.98;1.63;;;;;;;;;;5028722;28;20034;-81
2023/01/02 02:26:12;;;;;;;4.38;2.08;;;;;;;;;;5024507;28;20121;-79
2023/01/02 02:28:57;;;;;;;2.58;1.88;;;;;;;;;;5006075;28;20034;-80
2023/01/02 02:31:43;;;;;;;3.03;1.77;;;;;;;;;;5017463;28;20373;-81
2023/01/02 02:34:17;;;;;;;3.47;2.08;;;;;;;;;;5027462;28;20042;-80
2023/01/02 02:36:49;;;;;;;2.38;1.90;;;;;;;;;;5027891;28;20037;-80
2023/01/02 02:39:24;;;;;;;2.92;1.85;;;;;;;;;;5026863;28;20111;-80
2023/01/02 02:42:09;;;;;;;3.25;1.80;;;;;;;;;;5005542;28;20041;-81
2023/01/02 02:44:41;;;;;;;2.80;1.63;;;;;;;;;;5005521;28;20047;-82
2023/01/02 02:47:13;;;;;;;3.08;2.10;;;;;;;;;;5006887;28;20492;-82
2023/01/02 02:49:58;;;;;;;2.60;2.00;;;;;;;;;;5020929;28;20025;-81
2023/01/02 02:52:28;;;;;;;3.85;2.30;;;;;;;;;;5006368;28;20030;-79
2023/01/02 02:55:00;;;;;;;2.72;1.80;;;;;;;;;;5012765;28;20045;-80
2023/01/02 02:57:26;;;;;;;3.45;1.83;;;;;;;;;;5013671;28;20556;-80
2023/01/02 02:59:53;;;;;;;3.65;1.92;;;;;;;;;;5005671;28;20083;-80
2023/01/02 03:02:19;;;;;;;2.95;1.77;;;;;;;;;;5006283;28;20113;-81
2023/01/02 03:04:46;;;;;;;3.80;1.83;;;;;;;;;;5008116;28;20053;-82
2023/01/02 03:07:21;;;;;;;2.50;1.55;;;;;;;;;;5016819;28;20030;-81
2023/01/02 03:10:08;;;;;;;3.78;1.85;;;;;;;;;;5025682;28;20033;-82
2023/01/02 03:12:37;;;;;;;1.92;1.55;;;;;;;;;;4998698;28;20538;-82
2023/01/02 03:15:09;;;;;;;3.90;1.77;;;;;;;;;;5018155;28;20027;-82
2023/01/02 03:17:45;;;;;;;4.22;1.90;;;;;;;;;;5007334;28;20041;-81
2023/01/02 03:20:13;;;;;;;2.60;1.83;;;;;;;;;;5009919;28;20037;-80
2023/01/02 03:22:40;;;;;;;2.00;1.63;;;;;;;;;;5008288;28;20026;-81
2023/01/02 03:25:09;;;;;;;3.35;1.83;;;;;;;;;;5007607;28;20050;-81
2023/01/02 03:27:38;;;;;;;1.73;1.45;;;;;;;;;;5007747;28;20030;-81
2023/01/02 03:30:06;;;;;;;3.22;1.58;;;;;;;;;;5012882;28;20038;-83
2023/01/02 03:33:02;;;;;;;3.03;2.10;;;;;;;;;;5005997;28;20414;-81
2023/01/02 03:35:32;;;;;;;3.33;1.67;;;;;;;;;;4993414;28;20049;-82
2023/01/02 03:37:59;;;;;;;2.63;1.63;;;;;;;;;;5005983;28;20030;-83
2023/01/02 03:40:30;;;;;;;2.13;1.60;;;;;;;;;;5006227;28;20030;-83
2023/01/02 03:43:01;;;;;;;2.47;1.60;;;;;;;;;;5006508;28;20035;-82
2023/01/02 03:45:29;;;;;;;2.88;1.70;;;;;;;;;;5005719;28;20392;-80
2023/01/02 03:48:14;;;;;;;1.70;1.38;;;;;;;;;;5005722;28;20037;-80
2023/01/02 03:50:44;;;;;;;1.98;1.50;;;;;;;;;;5006155;28;20410;-80
2023/01/02 03:53:10;;;;;;;4.15;1.77;;;;;;;;;;5007198;28;20038;-78
2023/01/02 03:55:38;;;;;;;1.88;1.50;;;;;;;;;;5006240;28;20041;-78
2023/01/02 03:58:17;;;;;;;3.00;2.05;;;;;;;;;;5008872;28;20109;-78
2023/01/02 04:00:52;;;;;;;2.17;1.40;;;;;;;;;;5010196;28;20486;-78
2023/01/02 04:03:25;;;;;;;2.20;1.75;;;;;;;;;;5007166;28;20022;-80
2023/01/02 04:05:57;;;;;;;1.88;1.70;;;;;;;;;;5008880;28;20029;-79
2023/01/02 04:08:33;;;;;;;2.60;1.58;;;;;;;;;;5010563;28;20037;-78
2023/01/02 04:11:01;;;;;;;1.60;1.40;;;;;;;;;;5004812;28;20045;-79
2023/01/02 04:13:48;;;;;;;3.22;1.67;;;;;;;;;;4998889;28;20148;-79
2023/01/02 04:16:17;;;;;;;2.53;1.58;;;;;;;;;;5025875;28;20030;-80
2023/01/02 04:18:45;;;;;;;3.08;1.42;;;;;;;;;;5012941;28;20142;-80
2023/01/02 04:21:15;;;;;;;2.90;1.95;;;;;;;;;;5011740;28;20033;-81
2023/01/02 04:23:47;;;;;;;2.17;1.50;;;;;;;;;;5005741;28;20046;-81
2023/01/02 04:26:13;;;;;;;2.10;1.60;;;;;;;;;;5006158;28;20096;-79
2023/01/02 04:28:39;;;;;;;2.03;1.20;;;;;;;;;;5004731;28;20102;-80
2023/01/02 04:31:11;;;;;;;2.45;1.58;;;;;;;;;;5004636;28;20030;-81
2023/01/02 04:33:39;;;;;;;1.42;1.33;;;;;;;;;;5018949;28;20034;-79
2023/01/02 04:36:10;;;;;;;2.63;1.55;;;;;;;;;;5016048;28;20031;-82
2023/01/02 04:38:36;;;;;;;2.85;1.58;;;;;;;;;;5025001;28;20034;-80
2023/01/02 04:41:03;;;;;;;1.73;1.15;;;;;;;;;;5016208;28;20081;-80
2023/01/02 04:43:30;;;;;;;2.05;1.35;;;;;;;;;;5017986;28;20026;-80
2023/01/02 04:45:56;;;;;;;1.83;1.30;;;;;;;;;;5011341;28;20481;-82
2023/01/02 04:48:22;;;;;;;2.08;1.50;;;;;;;;;;5025070;28;20018;-82
2023/01/02 04:50:48;;;;;;;2.53;1.17;;;;;;;;;;5008951;28;20040;-81
2023/01/02 04:53:14;;;;;;;2.03;1.33;;;;;;;;;;5006189;28;20026;-80
2023/01/02 04:55:40;;;;;;;1.90;1.48;;;;;;;;;;5008855;28;20026;-83
2023/01/02 04:58:07;;;;;;;2.35;1.10;;;;;;;;;;5025690;28;20117;-80
2023/01/02 05:00:33;;;;;;;1.38;1.05;;;;;;;;;;5009375;28;20037;-81
2023/01/02 05:03:01;;;;;;;1.95;1.30;;;;;;;;;;5008828;28;20026;-80
2023/01/02 05:05:27;;;;;;;1.35;0.93;;;;;;;;;;5008866;28;20038;-82
2023/01/02 05:07:53;;;;;;;1.33;1.08;;;;;;;;;;5009482;28;20041;-81
2023/01/02 05:10:19;;;;;;;1.98;1.10;;;;;;;;;;5024052;28;20026;-80
2023/01/02 05:12:45;;;;;;;2.13;1.23;;;;;;;;;;5009211;28;20038;-80
2023/01/02 05:15:11;;;;;;;1.40;1.17;;;;;;;;;;5016622;28;20318;-81
2023/01/02 05:17:38;;;;;;;1.38;0.73;;;;;;;;;;5027885;28;20077;-82
2023/01/02 05:20:05;;;;;;;1.77;1.38;;;;;;;;;;5011388;28;20030;-80
2023/01/02 05:25:16;;;;;;;1.42;1.25;;;;;;;;;;4989258;28;20034;-81
2023/01/02 05:27:42;;;;;;;1.92;1.35;;;;;;;;;;5016998;28;20044;-80
2023/01/02 05:30:09;;;;;;;3.95;1.88;;;;;;;;;;5011963;28;20058;-81
2023/01/02 05:32:35;;;;;;;4.47;1.80;;;;;;;;;;5025971;28;20030;-79
2023/01/02 05:35:01;;;;;;;2.25;1.70;;;;;;;;;;5019534;28;20030;-80
2023/01/02 05:37:28;;;;;;;3.95;1.48;;;;;;;;;;5018822;28;20037;-81
2023/01/02 05:39:54;;;;;;;1.75;1.38;;;;;;;;;;5021334;28;20460;-81
2023/01/02 05:42:20;;;;;;;2.95;1.42;;;;;;;;;;5023344;28;20104;-82
2023/01/02 05:44:46;;;;;;;2.08;1.45;;;;;;;;;;5014094;28;20022;-80
2023/01/02 05:47:12;;;;;;;2.85;1.33;;;;;;;;;;5020314;28;20021;-81
2023/01/02 05:49:38;;;;;;;2.45;1.60;;;;;;;;;;5014921;28;20026;-80
2023/01/02 05:52:04;;;;;;;1.45;1.27;;;;;;;;;;5009822;28;20049;-82
2023/01/02 05:54:30;;;;;;;2.17;1.20;;;;;;;;;;5028681;28;20029;-81
2023/01/02 05:56:56;;;;;;;2.90;1.40;;;;;;;;;;5021960;28;20115;-82
2023/01/02 05:59:22;;;;;;;2.47;1.35;;;;;;;;;;5008353;28;20029;-81
2023/01/02 06:01:48;;;;;;;3.28;1.58;;;;;;;;;;5011157;28;20102;-82
2023/01/02 06:04:15;;;;;;;3.60;1.67;;;;;;;;;;5030228;28;20029;-81
2023/01/02 06:06:41;;;;;;;3.65;1.73;;;;;;;;;;5021276;28;20045;-83
2023/01/02 06:09:07;;;;;;;2.97;1.77;;;;;;;;;;5024220;28;20029;-83
2023/01/02 06:11:34;;;;;;;4.55;1.65;;;;;;;;;;5020586;28;20133;-83
2023/01/02 06:14:00;;;;;;;2.97;1.75;;;;;;;;;;5019482;28;20038;-85
2023/01/02 06:16:26;;;;;;;2.97;2.00;;;;;;;;;;5020313;28;20037;-82
2023/01/02 06:18:52;;;;;;;2.80;1.90;;;;;;;;;;5027701;28;20122;-83
2023/01/02 06:21:20;;;;;;;7.43;1.67;;;;;;;;;;5015259;28;20030;-82
2023/01/02 06:23:46;;;;;;;2.92;2.00;;;;;;;;;;5018321;28;20034;-82
2023/01/02 06:26:17;;;;;;;2.45;1.65;;;;;;;;;;5013984;28;20044;-82
2023/01/02 06:28:44;;;;;;;2.20;1.52;;;;;;;;;;5015917;28;20034;-79
2023/01/02 06:31:11;;;;;;;1.65;1.55;;;;;;;;;;5008026;28;20023;-82
2023/01/02 06:33:38;;;;;;;2.50;2.03;;;;;;;;;;5008581;28;20038;-82
2023/01/02 06:36:05;;;;;;;2.90;1.90;;;;;;;;;;4991241;28;20030;-81
2023/01/02 06:38:31;;;;;;;2.33;1.60;;;;;;;;;;4991878;28;20110;-81
2023/01/02 06:40:59;;;;;;;3.28;2.05;;;;;;;;;;5005187;28;20034;-80
2023/01/02 06:43:25;;;;;;;2.83;1.42;;;;;;;;;;5010263;28;20030;-83
2023/01/02 06:45:51;;;;;;;2.58;1.90;;;;;;;;;;5009045;28;20117;-82
2023/01/02 06:48:17;;;;;;;2.97;1.92;;;;;;;;;;5023803;28;20033;-82
2023/01/02 06:50:44;;;;;;;3.28;2.10;;;;;;;;;;5011724;28;20112;-79
2023/01/02 06:53:11;;;;;;;4.70;2.03;;;;;;;;;;5003423;28;20104;-80
2023/01/02 06:55:37;;;;;;;2.38;2.15;;;;;;;;;;5007801;28;20096;-80
2023/01/02 06:58:03;;;;;;;2.33;1.88;;;;;;;;;;5007042;28;20030;-80
2023/01/02 07:00:29;;;;;;;2.70;1.95;;;;;;;;;;5025948;28;20119;-81
2023/01/02 07:02:55;;;;;;;5.63;3.22;;;;;;;;;;5025020;28;20022;-81
2023/01/02 07:05:21;;;;;;;2.65;2.03;;;;;;;;;;5009742;28;20629;-80
2023/01/02 07:07:47;;;;;;;2.78;2.20;;;;;;;;;;5006911;28;20023;-79
2023/01/02 07:10:13;;;;;;;3.08;2.28;;;;;;;;;;5010753;28;20060;-79
2023/01/02 07:12:39;;;;;;;2.40;1.90;;;;;;;;;;5011542;28;20668;-79
2023/01/02 07:15:05;;;;;;;2.88;2.13;;;;;;;;;;5012654;28;20050;-80
2023/01/02 07:17:32;;;;;;;2.33;1.92;;;;;;;;;;5018522;28;20026;-80
2023/01/02 07:19:59;;;;;;;2.75;2.17;;;;;;;;;;5018740;28;20010;-78
2023/01/02 07:22:31;;;;;;;4.25;2.33;;;;;;;;;;5016973;28;20022;-79
2023/01/02 07:24:57;;;;;;;3.00;1.77;;;;;;;;;;5015692;28;20034;-78
2023/01/02 07:27:23;;;;;;;2.58;1.55;;;;;;;;;;5020946;28;20484;-77
2023/01/02 07:29:49;;;;;;;2.80;1.60;;;;;;;;;;5020875;28;20089;-78
2023/01/02 07:32:15;;;;;;;3.92;1.88;;;;;;;;;;5024053;28;20032;-79
2023/01/02 07:34:41;;;;;;;3.78;1.85;;;;;;;;;;5020847;28;20036;-79
2023/01/02 07:37:07;;;;;;;5.47;1.60;;;;;;;;;;5013703;28;20101;-79
2023/01/02 07:39:33;;;;;;;2.38;1.50;;;;;;;;;;5003148;28;20049;-79
2023/01/02 07:41:59;;;;;;;5.40;1.70;;;;;;;;;;5005767;28;20104;-77
2023/01/02 07:44:25;;;;;;;2.53;1.70;;;;;;;;;;5001252;28;20026;-79
2023/01/02 07:46:51;;;;;;;4.78;2.10;;;;;;;;;;5023405;28;20398;-79
2023/01/02 07:49:17;;;;;;;4.55;2.47;;;;;;;;;;5007449;28;20022;-79
2023/01/02 07:51:43;;;;;;;3.60;1.67;;;;;;;;;;5015704;28;20037;-80
2023/01/02 07:54:09;;;;;;;5.40;3.42;;;;;;;;;;5013408;28;20022;-79
2023/01/02 07:56:35;;;;;;;2.70;1.90;;;;;;;;;;5026657;28;20050;-78
2023/01/02 07:59:01;;;;;;;2.85;1.65;;;;;;;;;;5012393;28;20465;-78
2023/01/02 08:01:27;;;;;;;3.25;2.08;;;;;;;;;;5011879;28;20037;-79
2023/01/02 08:03:53;;;;;;;2.72;1.70;;;;;;;;;;5004375;28;20018;-79
2023/01/02 08:06:20;;;;;;;3.15;1.80;;;;;;;;;;4999156;28;20085;-79
2023/01/02 08:08:46;;;;;;;1.77;1.45;;;;;;;;;;5008329;28;20030;-79
2023/01/02 08:11:13;;;;;;;3.40;1.85;;;;;;;;;;5016985;28;20055;-78
2023/01/02 08:13:39;;;;;;;2.47;1.63;;;;;;;;;;5001366;28;20119;-79
2023/01/02 08:16:07;;;;;;;2.47;1.55;;;;;;;;;;4995741;28;20030;-77
2023/01/02 08:18:33;;;;;;;2.97;1.80;;;;;;;;;;4997163;28;20038;-78
2023/01/02 08:20:59;;;;;;;2.35;1.83;;;;;;;;;;4998010;28;20042;-79
2023/01/02 08:23:25;;;;;;;2.55;1.90;;;;;;;;;;4991682;28;20041;-79
2023/01/02 08:25:51;;;;;;;2.40;1.60;;;;;;;;;;4993987;28;20062;-78
2023/01/02 08:28:17;;;;;;;7.57;2.85;;;;;;;;;;4996620;28;20496;-78
2023/01/02 08:30:43;;;;;;;4.95;2.58;;;;;;;;;;4991363;28;20042;-79
2023/01/02 08:33:09;;;;;;;6.22;2.10;;;;;;;;;;4977153;28;20629;-78
2023/01/02 08:35:35;;;;;;;3.92;2.28;;;;;;;;;;4994734;28;20034;-80
2023/01/02 08:38:01;;;;;;;3.78;2.17;;;;;;;;;;4990966;28;20393;-80
2023/01/02 08:40:27;;;;;;;2.90;1.77;;;;;;;;;;4991155;28;20405;-79
2023/01/02 08:42:53;;;;;;;3.15;1.75;;;;;;;;;;4994951;28;20022;-81
2023/01/02 08:45:19;;;;;;;4.32;1.95;;;;;;;;;;4997110;28;20428;-80
2023/01/02 08:47:45;;;;;;;3.97;2.10;;;;;;;;;;4981279;28;20118;-78
2023/01/02 08:50:11;;;;;;;4.20;2.30;;;;;;;;;;4993548;28;20030;-80
2023/01/02 08:52:37;;;;;;;6.70;2.22;;;;;;;;;;4989600;28;20030;-80
2023/01/02 08:55:04;;;;;;;3.78;2.15;;;;;;;;;;4990421;28;20077;-78
2023/01/02 08:57:30;;;;;;;2.92;2.00;;;;;;;;;;4985154;28;20232;-80
2023/01/02 08:59:57;;;;;;;5.78;2.20;;;;;;;;;;4998386;28;20041;-80
2023/01/02 09:02:23;;;;;;;4.60;2.15;;;;;;;;;;5007007;28;20030;-80
2023/01/02 09:04:49;;;;;;;4.25;2.22;;;;;;;;;;5017773;28;20029;-80
2023/01/02 09:07:15;;;;;;;3.97;2.03;;;;;;;;;;5014881;28;20026;-80
2023/01/02 09:09:41;;;;;;;3.00;2.20;;;;;;;;;;5018201;28;20045;-79
2023/01/02 09:12:07;;;;;;;3.92;1.98;;;;;;;;;;5015595;28;20030;-80
2023/01/02 09:14:33;;;;;;;3.55;2.15;;;;;;;;;;4998560;28;20492;-79
2023/01/02 09:16:59;;;;;;;2.25;1.67;;;;;;;;;;5003508;28;20041;-79
2023/01/02 09:19:25;;;;;;;2.58;1.90;;;;;;;;;;5001580;28;20019;-81
2023/01/02 09:21:51;;;;;;;4.32;2.00;;;;;;;;;;4997310;28;20038;-81
2023/01/02 09:24:17;;;;;;;4.35;2.55;;;;;;;;;;4999556;28;20057;-80
2023/01/02 09:26:44;;;;;;;3.60;2.00;;;;;;;;;;4999729;28;20050;-78
2023/01/02 09:29:11;;;;;;;3.58;2.20;;;;;;;;;;4998604;28;20030;-79
2023/01/02 09:31:37;;;;;;;3.30;2.22;;;;;;;;;;4997821;28;20054;-78
2023/01/02 09:34:03;;;;;;;4.00;2.30;;;;;;;;;;4998532;28;20027;-79
2023/01/02 09:36:30;;;;;;;2.97;2.15;;;;;;;;;;5000458;28;20077;-79
2023/01/02 09:38:57;;;;;;;2.60;1.73;;;;;;;;;;5006698;28;20040;-78
2023/01/02 09:42:07;;;;;;;2.33;1.42;;;;;;;;;;5006213;28;20031;-79
2023/01/02 09:44:39;;;;;;;2.67;1.75;;;;;;;;;;4953086;28;20026;-78
2023/01/02 09:47:05;;;;;;;2.85;1.88;;;;;;;;;;4943070;29;20040;-79
2023/01/02 09:49:33;;;;;;;4.47;1.80;;;;;;;;;;4978564;28;20478;-79
2023/01/02 09:51:59;;;;;;;3.03;1.85;;;;;;;;;;5007370;28;20022;-78
2023/01/02 09:54:30;;;;;;;2.88;1.95;;;;;;;;;;4996463;28;20493;-78
2023/01/02 09:56:59;;;;;;;4.28;1.60;;;;;;;;;;5001354;28;20042;-79
2023/01/02 09:59:33;;;;;;;2.72;1.60;;;;;;;;;;5002952;28;20054;-79
2023/01/02 10:01:59;;;;;;;2.58;2.15;;;;;;;;;;5013232;28;20085;-79
2023/01/02 10:04:25;;;;;;;4.63;2.80;;;;;;;;;;5009255;28;20496;-78
2023/01/02 10:07:08;;;;;;;4.68;2.40;;;;;;;;;;5001567;28;20376;-79
2023/01/02 10:09:54;;;;;;;5.20;2.65;;;;;;;;;;5027517;28;20022;-79
2023/01/02 10:12:31;;;;;;;3.53;2.25;;;;;;;;;;5004075;28;21241;-79
2023/01/02 10:14:59;;;;;;;3.63;2.22;;;;;;;;;;5017551;28;20307;-78
2023/01/02 10:17:27;;;;;;;3.42;2.03;;;;;;;;;;5007369;28;20037;-78
2023/01/02 10:19:58;;;;;;;3.42;2.15;;;;;;;;;;5005026;28;20405;-77
2023/01/02 10:22:41;;;;;;;3.35;1.83;;;;;;;;;;5002347;28;20380;-79
2023/01/02 10:25:14;;;;;;;2.92;1.55;;;;;;;;;;4990532;28;20030;-78
2023/01/02 10:27:44;;;;;;;2.85;1.90;;;;;;;;;;5010206;28;20034;-78
2023/01/02 10:30:13;;;;;;;2.95;1.90;;;;;;;;;;4986297;28;20034;-79
2023/01/02 10:32:43;;;;;;;3.58;1.58;;;;;;;;;;5013099;28;20130;-78
2023/01/02 10:35:13;;;;;;;2.53;1.23;;;;;;;;;;5000609;28;20478;-79
2023/01/02 10:37:39;;;;;;;1.75;1.60;;;;;;;;;;5000821;28;20093;-79
2023/01/02 10:40:05;;;;;;;5.05;2.30;;;;;;;;;;5000829;28;20026;-80
2023/01/02 10:42:32;;;;;;;1.45;1.27;;;;;;;;;;4999122;28;20022;-80
2023/01/02 10:44:58;;;;;;;3.25;1.35;;;;;;;;;;5001663;28;20123;-79
2023/01/02 10:47:28;;;;;;;2.58;1.67;;;;;;;;;;5013663;28;20362;-79
2023/01/02 10:49:54;;;;;;;1.67;1.20;;;;;;;;;;5005637;28;20022;-79
2023/01/02 10:52:34;;;;;;;2.10;1.40;;;;;;;;;;4999192;28;20023;-78
2023/01/02 10:55:00;;;;;;;1.67;1.20;;;;;;;;;;5026046;28;20036;-80
2023/01/02 10:57:36;;;;;;;2.90;1.83;;;;;;;;;;5018609;28;20037;-79
2023/01/02 11:00:03;;;;;;;2.75;1.70;;;;;;;;;;5016902;28;20021;-83
2023/01/02 11:02:39;;;;;;;3.85;1.10;;;;;;;;;;5001822;28;20038;-82
2023/01/02 11:05:07;;;;;;;1.38;0.90;;;;;;;;;;4997737;28;20417;-84
2023/01/02 11:07:35;;;;;;;4.28;1.38;;;;;;;;;;4996263;28;20031;-82
2023/01/02 11:10:01;;;;;;;1.73;1.10;;;;;;;;;;5001878;28;20092;-84
2023/01/02 11:12:27;;;;;;;2.55;1.40;;;;;;;;;;4999662;28;20081;-82
2023/01/02 11:15:08;;;;;;;4.63;1.60;;;;;;;;;;4999455;28;20027;-82
2023/01/02 11:17:40;;;;;;;4.05;1.90;;;;;;;;;;5000036;28;20042;-81
2023/01/02 11:20:18;;;;;;;3.90;1.83;;;;;;;;;;4999206;28;20367;-82
2023/01/02 11:22:44;;;;;;;6.18;2.13;;;;;;;;;;4999843;28;20071;-82
2023/01/02 11:25:21;;;;;;;4.90;2.55;;;;;;;;;;5000780;28;20018;-82
2023/01/02 11:27:48;;;;;;;2.88;1.85;;;;;;;;;;4998894;28;20030;-81
2023/01/02 11:30:26;;;;;;;3.58;1.77;;;;;;;;;;4998368;28;20026;-82
2023/01/02 11:33:04;;;;;;;2.88;1.80;;;;;;;;;;5000506;28;20362;-82
2023/01/02 11:35:36;;;;;;;3.13;1.60;;;;;;;;;;4997650;28;20026;-82
2023/01/02 11:38:02;;;;;;;;;;;;;;;;;;4998670;28;20382;-82
2023/01/02 11:40:30;;;;;;;1.95;1.13;;;;;;;;;;5001835;28;19906;-82
2023/01/02 11:45:42;;;;;;;2.55;0.82;;;;;;;;;;4999602;28;20050;-82
2023/01/02 11:48:13;;;;;;;1.77;1.23;;;;;;;;;;5007724;28;20085;-80
2023/01/02 11:50:39;;;;;;;3.60;1.17;;;;;;;;;;5011441;28;20030;-80
2023/01/02 11:53:11;;;;;;;0.77;0.77;;;;;;;;;;5011293;28;20019;-80
2023/01/02 11:55:46;;;;;;;3.08;1.00;;;;;;;;;;5009801;28;20070;-81
2023/01/02 11:58:24;;;;;;;1.75;1.17;;;;;;;;;;5008439;28;20038;-82
2023/01/02 12:01:08;;;;;;;1.20;0.95;;;;;;;;;;5016448;28;20035;-80
2023/01/02 12:03:34;;;;;;;0.73;0.73;;;;;;;;;;5003586;28;20030;-82
2023/01/02 12:06:00;;;;;;;0.93;0.70;;;;;;;;;;5020364;28;20034;-81
2023/01/02 12:08:34;;;;;;;1.10;0.55;;;;;;;;;;5028766;28;20034;-82
2023/01/02 12:11:07;;;;;;;1.80;1.10;;;;;;;;;;5020793;28;20042;-82
2023/01/02 12:13:33;;;;;;;;;;;;;;;;;;5005474;28;20014;-81
2023/01/02 12:16:15;;;;;;;2.60;1.15;;;;;;;;;;5001868;28;20447;-80
2023/01/02 12:18:46;;;;;;;1.63;1.23;;;;;;;;;;5020677;28;20025;-81
2023/01/02 12:21:23;;;;;;;2.05;0.90;;;;;;;;;;5009540;28;20521;-81
2023/01/02 12:24:01;;;;;;;1.75;1.02;;;;;;;;;;5008781;28;20074;-81
2023/01/02 12:26:39;;;;;;;2.25;1.67;;;;;;;;;;5020818;28;20018;-81
2023/01/02 12:29:05;;;;;;;2.60;1.75;;;;;;;;;;5023038;28;20026;-80
2023/01/02 12:31:38;;;;;;;3.88;2.05;;;;;;;;;;5009953;28;20034;-80
2023/01/02 12:34:07;;;;;;;4.45;1.50;;;;;;;;;;5012980;28;20042;-80
2023/01/02 12:36:38;;;;;;;3.03;1.02;;;;;;;;;;5017296;28;20067;-81
2023/01/02 12:39:13;;;;;;;3.13;1.10;;;;;;;;;;5014307;28;20102;-81
2023/01/02 12:41:39;;;;;;;2.17;1.40;;;;;;;;;;5009758;28;20046;-82
2023/01/02 12:44:05;;;;;;;1.92;1.42;;;;;;;;;;5003852;28;20022;-81
2023/01/02 12:46:43;;;;;;;3.38;1.75;;;;;;;;;;5010371;28;20485;-82
2023/01/02 12:49:18;;;;;;;2.50;1.38;;;;;;;;;;4999798;28;20535;-81
2023/01/02 12:51:55;;;;;;;2.28;1.30;;;;;;;;;;4999942;28;20034;-82
2023/01/02 12:54:31;;;;;;;4.38;1.48;;;;;;;;;;4999139;28;20023;-82
2023/01/02 12:57:03;;;;;;;3.47;1.45;;;;;;;;;;5014751;28;20033;-80
2023/01/02 12:59:30;;;;;;;4.88;1.63;;;;;;;;;;5007014;28;20457;-79
2023/01/02 13:01:57;;;;;;;5.55;1.60;;;;;;;;;;5009086;28;20485;-81
2023/01/02 13:04:39;;;;;;;4.13;1.48;;;;;;;;;;5010799;28;20108;-80
2023/01/02 13:07:11;;;;;;;2.58;1.73;;;;;;;;;;5001669;28;20045;-80
2023/01/02 13:09:41;;;;;;;1.95;1.40;;;;;;;;;;5014732;28;20045;-79
2023/01/02 13:12:18;;;;;;;2.30;1.50;;;;;;;;;;5010133;28;20023;-80
2023/01/02 13:14:44;;;;;;;2.30;1.70;;;;;;;;;;4999767;28;20029;-81
2023/01/02 13:17:17;;;;;;;2.28;1.40;;;;;;;;;;5010313;28;20018;-80
2023/01/02 13:19:46;;;;;;;2.75;1.58;;;;;;;;;;5006632;28;20041;-79
2023/01/02 13:22:31;;;;;;;3.85;1.30;;;;;;;;;;5001688;28;20023;-80
2023/01/02 13:24:58;;;;;;;6.25;1.80;;;;;;;;;;5002764;28;20489;-80
2023/01/02 13:27:24;;;;;;;7.70;1.77;;;;;;;;;;5000599;28;20054;-79
2023/01/02 13:29:52;;;;;;;3.40;1.92;;;;;;;;;;4986201;28;20027;-80
2023/01/02 13:32:26;;;;;;;4.78;1.63;;;;;;;;;;4997699;28;20018;-80
2023/01/02 13:34:53;;;;;;;2.42;1.45;;;;;;;;;;5012793;28;20030;-81
2023/01/02 13:37:21;;;;;;;3.78;1.20;;;;;;;;;;5011655;28;20030;-80
2023/01/02 13:39:49;;;;;;;1.85;1.40;;;;;;;;;;5008112;28;20044;-81
2023/01/02 13:45:18;;;;;;;;;;;;;;;;;;4985096;28;20050;-81
2023/01/02 13:47:48;;;;;;;3.17;1.13;;;;;;;;;;5010412;28;19937;-80
2023/01/02 13:50:19;;;;;;;3.63;1.15;;;;;;;;;;5002899;28;20065;-80
2023/01/02 13:52:58;;;;;;;1.70;0.98;;;;;;;;;;5019100;28;20620;-80
2023/01/02 13:55:32;;;;;;;3.88;1.00;;;;;;;;;;5021404;28;20030;-81
2023/01/02 13:58:16;;;;;;;2.25;1.50;;;;;;;;;;5006611;28;20019;-81
2023/01/02 14:00:46;;;;;;;3.72;1.33;;;;;;;;;;4998371;28;20448;-79
2023/01/02 14:03:24;;;;;;;1.52;0.93;;;;;;;;;;5009826;28;20038;-80
2023/01/02 14:06:04;;;;;;;1.73;1.00;;;;;;;;;;5014331;28;20018;-80
2023/01/02 14:08:36;;;;;;;2.22;1.08;;;;;;;;;;5029745;28;20022;-79
2023/01/02 14:11:08;;;;;;;1.85;1.25;;;;;;;;;;5017803;28;20031;-80
2023/01/02 14:13:36;;;;;;;2.92;1.13;;;;;;;;;;5016605;28;20061;-79
2023/01/02 14:16:17;;;;;;;1.13;0.65;;;;;;;;;;5017149;28;20042;-80
2023/01/02 14:18:44;;;;;;;1.48;1.15;;;;;;;;;;5017264;28;20101;-80
2023/01/02 14:21:10;;;;;;;2.70;1.63;;;;;;;;;;5015163;28;20141;-81
2023/01/02 14:23:41;;;;;;;2.97;1.27;;;;;;;;;;5019845;28;20026;-81
2023/01/02 14:26:21;;;;;;;3.17;1.20;;;;;;;;;;5023653;28;20041;-80
2023/01/02 14:28:50;;;;;;;2.80;1.73;;;;;;;;;;5017420;28;20304;-81
2023/01/02 14:31:18;;;;;;;2.05;1.30;;;;;;;;;;5019541;28;20029;-79
2023/01/02 14:33:52;;;;;;;3.75;1.35;;;;;;;;;;5019096;28;20021;-79
2023/01/02 14:36:18;;;;;;;1.90;1.20;;;;;;;;;;5002482;28;20061;-80
2023/01/02 14:38:52;;;;;;;4.32;1.35;;;;;;;;;;5015574;28;20462;-79
2023/01/02 14:44:28;;;;;;;2.58;1.85;;;;;;;;;;4976984;28;20050;-80
2023/01/02 14:46:55;;;;;;;2.25;1.45;;;;;;;;;;4997041;28;20033;-79
2023/01/02 14:49:21;;;;;;;1.95;1.65;;;;;;;;;;5003971;28;20077;-79
2023/01/02 14:51:53;;;;;;;2.25;1.90;;;;;;;;;;4998305;28;20026;-79
2023/01/02 14:54:29;;;;;;;4.70;1.52;;;;;;;;;;4996642;28;20029;-79
2023/01/02 14:57:01;;;;;;;3.75;2.10;;;;;;;;;;4981216;28;20026;-79
2023/01/02 14:59:27;;;;;;;;;;;;;;;;;;4996925;28;20026;-78
2023/01/02 15:02:02;;;;;;;6.97;2.35;;;;;;;;;;4996197;28;19909;-79
2023/01/02 15:04:37;;;;;;;4.18;2.08;;;;;;;;;;5014348;28;20130;-78
2023/01/02 15:07:30;;;;;;;3.83;1.80;;;;;;;;;;5012489;28;20029;-78